RESULTADOS DE LA FECHA: Domingo 19 de Septiembre, 2021 C2 | Ver Clase 2 | Ver Clase 3
FINAL C2
Puesto Nro Piloto Marca Vtas Tiempo Dif.
Descargas
SERIES
PRIMERA SERIE C2
Puesto Nro Piloto Marca Vtas Tiempo Dif.
1 89 RENZO BLOTTA TOYOTA ETIOS 6 10:25.066
2 84 LUCAS YEROBI FIESTA KINETIC 6 10:29.897 4.831
3 150 JUAN MARTIN ELUCHANS NISSAN MARCH 6 10:31.941 6.875
4 61 FACUNDO BUSTOS VW TREND 6 10:32.105 7.039
5 113 CHRISTIAN BODRATO MIONETT TOYOTA ETIOS 6 10:32.639 7.573
6 4 LUCAS TEDESCHI TOYOTA ETIOS 6 10:33.182 8.116
7 16 DIEGO LEANEZ TOYOTA ETIOS 6 10:40.592 15.526
8 80 JUAN I. CANELA VW TREND 6 10:42.097 17.031
9 98 ALEX CONCI FIESTA KINETIC 6 10:56.080 31.014
10 10 ALEJO BORGIANI VW TREND 6 11:03.716 38.650
11 23 DAMIAN KIRSTEIN PEUGEOT 208 6 11:03.761 38.695
12 141 MAURO SCHENONE FIAT ARGO 6 11:07.739 42.673

No Largo Auto Nro. 26 (Bonomo)

Auto Nro. 23 (Kirstein) Recargado con un puesto por maniobra peligrosa al Auto Nro. 10 (Borgiani)

Descargas
Título Archivo Descarga
226-509-1-serie-clase-2.xls
SEGUNDA SERIE C2
Puesto Nro Piloto Marca Vtas Tiempo Dif.
1 3 GERONIMO NUNEZ TOYOTA ETIOS 6 10:36.203
2 21 FERNANDO GOMEZ FREDES TOYOTA ETIOS 6 10:37.009 0.806
3 35 SERGIO FERNANDEZ NISSAN MARCH 6 10:37.420 1.217
4 124 MATIAS CRAVERO FIESTA KINETIC 6 10:37.789 1.586
5 144 THOMAS POZNER RENAULT CLIO 6 10:41.861 5.658
6 30 VALDERREY ALEJANDRO TOYOTA ETIOS 6 10:43.003 6.800
7 75 JOSE LUIS ARRATE TOYOTA ETIOS 6 10:43.844 7.641
8 154 FACUNDO ROTONDO FIESTA KINETIC 6 10:51.954 15.751
9 12 MAXIMILIANO BESTANI FIESTA KINETIC 6 10:52.402 16.199
10 82 JUAN PABLO AQUILES TOYOTA ETIOS 6 11:00.113 23.910
2 EMANUEL ABDALA FIESTA KINETIC 2 3:32.546 4 Vueltas
14 IGNACIO PROCACITTO VW TREND 1 2:19.953 5 Vueltas
Descargas
Título Archivo Descarga
226-101-2da-serie-clase-2.xls
TERCERA SERIE C2
Puesto Nro Piloto Marca Vtas Tiempo Dif.
1 114 PABLO ORTEGA FIAT ARGO 6 10:29.123
2 79 MARCO VERONESI TOYOTA ETIOS 6 10:32.702 3.579
3 121 NAZARENO BEGUIRISTAIN TOYOTA ETIOS 6 10:35.416 6.293
4 22 MARCOS FERNANDEZ NISSAN MARCH 6 10:37.826 8.703
5 9 CHRISTIAN ABDALA TOYOTA ETIOS 6 10:40.518 11.395
6 55 MARCELO GUEVARA NISSAN MARCH 6 10:41.105 11.982
7 28 MATEO NUNEZ NISSAN MARCH 6 10:43.107 13.984
8 78 ROBERTO LUNA VW TREND 6 10:43.386 14.263
9 8 SEBASTIAN PEREZ CHEVROLET ONIX 6 10:47.916 18.793
10 37 GABRIEL SCORDIA FIAT ARGO 6 10:51.419 22.296
11 7 FACUNDO LEANEZ TOYOTA ETIOS 5 10:36.054 1 Vuelta
116 ALEJANDRO TORRISI NISSAN MARCH 3 5:48.333 3 Vueltas

Auto Nro. 7 (Leanez F) Apercibido por reiteracion de maniobras peligrosas.

Auto Nro. 22 (Fernandez S) Apercibido por maniobra peligrosa al Auto Nro. 7 (Leanez F)

Descargas
Título Archivo Descarga
226-353-3ra-serie-clase-2.xls
CLASIFICACIONES
1° CLASIFICACIÓN C2
Puesto Nro Piloto Marca Vtas Tiempo Dif.
1 4 LUCAS TEDESCHI TOYOTA ETIOS 1 1:41.999
2 14 IGNACIO PROCACITTO VW TREND 3 1:42.326 0.327
3 114 PABLO ORTEGA FIAT ARGO 3 1:42.389 0.390
4 2 EMANUEL ABDALA FIESTA KINETIC 3 1:42.601 0.602
5 21 FERNANDO GOMEZ FREDES TOYOTA ETIOS 1 1:42.689 0.690
6 116 ALEJANDRO TORRISI NISSAN MARCH 3 1:42.808 0.809
7 61 FACUNDO BUSTOS VW TREND 3 1:42.811 0.812
8 89 RENZO BLOTTA TOYOTA ETIOS 2 1:42.857 0.858
9 3 GERONIMO NUNEZ TOYOTA ETIOS 3 1:42.915 0.916
10 7 FACUNDO LEANEZ TOYOTA ETIOS 3 1:42.921 0.922
11 121 NAZARENO BEGUIRISTAIN TOYOTA ETIOS 3 1:42.925 0.926
12 150 JUAN MARTIN ELUCHANS NISSAN MARCH 3 1:42.926 0.927
13 10 ALEJO BORGIANI VW TREND 3 1:42.928 0.929
14 98 ALEX CONCI FIESTA KINETIC 2 1:43.002 1.003
15 12 MAXIMILIANO BESTANI FIESTA KINETIC 4 1:43.036 1.037
16 113 CHRISTIAN BODRATO MIONETT TOYOTA ETIOS 3 1:43.133 1.134
17 124 MATIAS CRAVERO FIESTA KINETIC 2 1:43.185 1.186
18 35 SERGIO FERNANDEZ NISSAN MARCH 4 1:43.252 1.253
19 80 JUAN I. CANELA VW TREND 4 1:43.293 1.294
20 22 MARCOS FERNANDEZ NISSAN MARCH 3 1:43.302 1.303
21 144 THOMAS POZNER RENAULT CLIO 4 1:43.356 1.357
22 16 DIEGO LEANEZ TOYOTA ETIOS 3 1:43.463 1.464
23 82 JUAN PABLO AQUILES TOYOTA ETIOS 3 1:43.488 1.489
24 84 LUCAS YEROBI FIESTA KINETIC 2 1:43.506 1.507
25 78 ROBERTO LUNA VW TREND 4 1:43.671 1.672
26 23 DAMIAN KIRSTEIN PEUGEOT 208 3 1:43.671 1.672
27 154 FACUNDO ROTONDO FIESTA KINETIC 3 1:43.700 1.701
28 28 MATEO NUNEZ NISSAN MARCH 3 1:43.846 1.847
29 8 SEBASTIAN PEREZ CHEVROLET ONIX 3 1:43.939 1.940
30 141 MAURO SCHENONE FIAT ARGO 3 1:43.968 1.969
31 79 MARCO VERONESI TOYOTA ETIOS 4 1:44.042 2.043
32 30 VALDERREY ALEJANDRO TOYOTA ETIOS 3 1:44.052 2.053
33 37 GABRIEL SCORDIA FIAT ARGO 3 1:44.091 2.092
34 75 JOSE LUIS ARRATE TOYOTA ETIOS 4 1:44.153 2.154
35 55 MARCELO GUEVARA NISSAN MARCH 3 1:44.845 2.846
36 9 CHRISTIAN ABDALA TOYOTA ETIOS 2 2:14.468 32.469

Sin tiempo Auto Nro. 26 (Bonomo)

Autos Nro. 55 (Guevara) y 79 (Veronesi) Retiro de la mejor vuelta por obstrucción al Auto Nro. 35 (Fernandez)

Auto Nro. 9 (Abdala C) Retiro de la mejor vuelta por obstrucción al Auto Nro. 30 (Valderrey)

Descargas
Título Archivo Descarga
226-717-1ra-clasificacion-clase-2.xls
2° CLASIFICACIÓN C2
Puesto Nro Piloto Marca Vtas Tiempo Dif.
1 4 LUCAS TEDESCHI TOYOTA ETIOS 3 1:42.259
2 14 IGNACIO PROCACITTO VW TREND 3 1:42.372 0.113
3 89 RENZO BLOTTA TOYOTA ETIOS 1 1:42.430 0.171
4 21 FERNANDO GOMEZ FREDES TOYOTA ETIOS 1 1:42.452 0.193
5 114 PABLO ORTEGA FIAT ARGO 3 1:42.453 0.194
6 121 NAZARENO BEGUIRISTAIN TOYOTA ETIOS 1 1:42.465 0.206
7 150 JUAN MARTIN ELUCHANS NISSAN MARCH 1 1:42.589 0.330
8 79 MARCO VERONESI TOYOTA ETIOS 1 1:42.631 0.372
9 84 LUCAS YEROBI FIESTA KINETIC 2 1:42.717 0.458
10 82 JUAN PABLO AQUILES TOYOTA ETIOS 4 1:42.730 0.471
11 116 ALEJANDRO TORRISI NISSAN MARCH 4 1:42.836 0.577
12 2 EMANUEL ABDALA FIESTA KINETIC 3 1:42.940 0.681
13 35 SERGIO FERNANDEZ NISSAN MARCH 3 1:42.983 0.724
14 22 MARCOS FERNANDEZ NISSAN MARCH 3 1:42.994 0.735
15 10 ALEJO BORGIANI VW TREND 3 1:43.048 0.789
16 28 MATEO NUNEZ NISSAN MARCH 3 1:43.118 0.859
17 98 ALEX CONCI FIESTA KINETIC 3 1:43.180 0.921
18 55 MARCELO GUEVARA NISSAN MARCH 3 1:43.188 0.929
19 124 MATIAS CRAVERO FIESTA KINETIC 4 1:43.201 0.942
20 12 MAXIMILIANO BESTANI FIESTA KINETIC 3 1:43.227 0.968
21 61 FACUNDO BUSTOS VW TREND 3 1:43.247 0.988
22 144 THOMAS POZNER RENAULT CLIO 4 1:43.305 1.046
23 9 CHRISTIAN ABDALA TOYOTA ETIOS 4 1:43.307 1.048
24 80 JUAN I. CANELA VW TREND 3 1:43.503 1.244
25 154 FACUNDO ROTONDO FIESTA KINETIC 3 1:43.606 1.347
26 113 CHRISTIAN BODRATO MIONETT TOYOTA ETIOS 3 1:43.672 1.413
27 3 GERONIMO NUNEZ TOYOTA ETIOS 4 1:43.703 1.444
28 75 JOSE LUIS ARRATE TOYOTA ETIOS 3 1:43.706 1.447
29 23 DAMIAN KIRSTEIN PEUGEOT 208 3 1:43.820 1.561
30 16 DIEGO LEANEZ TOYOTA ETIOS 3 1:44.057 1.798
31 30 VALDERREY ALEJANDRO TOYOTA ETIOS 3 1:44.083 1.824
32 37 GABRIEL SCORDIA FIAT ARGO 3 1:44.099 1.840
33 8 SEBASTIAN PEREZ CHEVROLET ONIX 3 1:44.338 2.079
34 141 MAURO SCHENONE FIAT ARGO 3 1:44.660 2.401
35 26 AGUSTIN BONOMO DS3 1 1:45.459 3.200
36 78 ROBERTO LUNA VW TREND 3 1:47.663 5.404

Auto Nro. 7 (Leanez F) Excluido parcialmente por no respetar régimen de parque cerrado.

Descargas
Título Archivo Descarga
226-612-2da-clasificacion-clase-2.xls
GENERAL CLASIFICACIÓN C2
Puesto Nro Piloto Marca Vtas Tiempo Dif.
1 4 LUCAS TEDESCHI TOYOTA ETIOS 1:4
2 14 IGNACIO PROCACITTO VW TREND 1:4 0.327
3 114 PABLO ORTEGA FIAT ARGO 1:4 0.390
4 89 RENZO BLOTTA TOYOTA ETIOS 1:4 0.431
5 21 FERNANDO GOMEZ FREDES TOYOTA ETIOS 1:4 0.453
6 121 NAZARENO BEGUIRISTAIN TOYOTA ETIOS 1:4 0.466
7 150 JUAN MARTIN ELUCHANS NISSAN MARCH 1:4 0.590
8 2 EMANUEL ABDALA FIESTA KINETIC 1:4 0.602
9 79 MARCO VERONESI TOYOTA ETIOS 1:4 0.632
10 84 LUCAS YEROBI FIESTA KINETIC 1:4 0.718
11 82 JUAN PABLO AQUILES TOYOTA ETIOS 1:4 0.731
12 116 ALEJANDRO TORRISI NISSAN MARCH 1:4 0.809
13 61 FACUNDO BUSTOS VW TREND 1:4 0.812
14 3 GERONIMO NUNEZ TOYOTA ETIOS 1:4 0.916
15 7 FACUNDO LEANEZ TOYOTA ETIOS 1:4 0.922
16 10 ALEJO BORGIANI VW TREND 1:4 0.929
17 35 SERGIO FERNANDEZ NISSAN MARCH 1:4 0.984
18 22 MARCOS FERNANDEZ NISSAN MARCH 1:4 0.995
19 98 ALEX CONCI FIESTA KINETIC 1:4 1.003
20 12 MAXIMILIANO BESTANI FIESTA KINETIC 1:4 1.037
21 28 MATEO NUNEZ NISSAN MARCH 1:4 1.119
22 113 CHRISTIAN BODRATO MIONETT TOYOTA ETIOS 1:4 1.134
23 124 MATIAS CRAVERO FIESTA KINETIC 1:4 1.186
24 55 MARCELO GUEVARA NISSAN MARCH 1:4 1.189
25 80 JUAN I. CANELA VW TREND 1:4 1.294
26 144 THOMAS POZNER RENAULT CLIO 1:4 1.306
27 9 CHRISTIAN ABDALA TOYOTA ETIOS 1:4 1.308
28 16 DIEGO LEANEZ TOYOTA ETIOS 1:4 1.464
29 154 FACUNDO ROTONDO FIESTA KINETIC 1:4 1.607
30 78 ROBERTO LUNA VW TREND 1:4 1.672
31 23 DAMIAN KIRSTEIN PEUGEOT 208 1:4 1.672
32 75 JOSE LUIS ARRATE TOYOTA ETIOS 1:4 1.707
33 8 SEBASTIAN PEREZ CHEVROLET ONIX 1:4 1.940
34 141 MAURO SCHENONE FIAT ARGO 1:4 1.969
35 30 VALDERREY ALEJANDRO TOYOTA ETIOS 1:4 2.053
36 37 GABRIEL SCORDIA FIAT ARGO 1:4 2.092
37 26 AGUSTIN BONOMO DS3 1:4 3.460
Descargas
ENTRENAMIENTOS
1° ENTRENAMIENTO C2
Puesto Nro Piloto Marca Vtas Tiempo Dif.
1 14 IGNACIO PROCACITTO VW TREND 11 1:42.276
2 114 PABLO ORTEGA FIAT ARGO 10 1:42.725 0.449
3 89 RENZO BLOTTA TOYOTA ETIOS 13 1:42.865 0.589
4 3 GERONIMO NUNEZ TOYOTA ETIOS 10 1:43.024 0.748
5 113 CHRISTIAN BODRATO MIONETT TOYOTA ETIOS 12 1:43.336 1.060
6 7 FACUNDO LEANEZ TOYOTA ETIOS 12 1:43.379 1.103
7 2 EMANUEL ABDALA FIESTA KINETIC 11 1:43.409 1.133
8 121 NAZARENO BEGUIRISTAIN TOYOTA ETIOS 11 1:43.516 1.240
9 98 ALEX CONCI FIESTA KINETIC 10 1:43.528 1.252
10 8 SEBASTIAN PEREZ CHEVROLET ONIX 12 1:43.688 1.412
11 4 LUCAS TEDESCHI TOYOTA ETIOS 12 1:43.716 1.440
12 80 JUAN I. CANELA VW TREND 11 1:43.727 1.451
13 79 MARCO VERONESI TOYOTA ETIOS 12 1:43.740 1.464
14 35 SERGIO FERNANDEZ NISSAN MARCH 12 1:43.842 1.566
15 21 FERNANDO GOMEZ FREDES TOYOTA ETIOS 11 1:43.893 1.617
16 9 CHRISTIAN ABDALA TOYOTA ETIOS 12 1:43.956 1.680
17 144 THOMAS POZNER RENAULT CLIO 12 1:43.964 1.688
18 82 JUAN PABLO AQUILES TOYOTA ETIOS 13 1:43.973 1.697
19 23 DAMIAN KIRSTEIN PEUGEOT 208 11 1:43.983 1.707
20 150 JUAN MARTIN ELUCHANS NISSAN MARCH 9 1:43.994 1.718
21 61 FACUNDO BUSTOS VW TREND 11 1:44.062 1.786
22 124 MATIAS CRAVERO FIESTA KINETIC 11 1:44.069 1.793
23 22 MARCOS FERNANDEZ NISSAN MARCH 12 1:44.139 1.863
24 10 ALEJO BORGIANI VW TREND 12 1:44.146 1.870
25 12 MAXIMILIANO BESTANI FIESTA KINETIC 13 1:44.266 1.990
26 78 ROBERTO LUNA VW TREND 11 1:44.306 2.030
27 15 MIGUEL CIAURRO VW TREND 11 1:44.376 2.100
28 55 MARCELO GUEVARA NISSAN MARCH 13 1:44.388 2.112
29 84 LUCAS YEROBI FIESTA KINETIC 9 1:44.436 2.160
30 154 FACUNDO ROTONDO FIESTA KINETIC 8 1:44.591 2.315
31 16 DIEGO LEANEZ TOYOTA ETIOS 11 1:44.707 2.431
32 75 JOSE LUIS ARRATE TOYOTA ETIOS 13 1:44.714 2.438
33 30 VALDERREY ALEJANDRO TOYOTA ETIOS 12 1:44.728 2.452
34 28 MATEO NUNEZ NISSAN MARCH 12 1:44.871 2.595
35 116 ALEJANDRO TORRISI NISSAN MARCH 14 1:44.980 2.704
36 37 GABRIEL SCORDIA FIAT ARGO 7 1:45.058 2.782
37 141 MAURO SCHENONE FIAT ARGO 11 1:45.619 3.343

Sin Tiempo Auto Nro. 26 (Bonomo)

Descargas
Título Archivo Descarga
226-415-1er-entrenamiento-clase-2.xls
2° ENTRENAMIENTO C2
Puesto Nro Piloto Marca Vtas Tiempo Dif.
1 4 LUCAS TEDESCHI TOYOTA ETIOS 7 1:42.071
2 89 RENZO BLOTTA TOYOTA ETIOS 6 1:42.638 0.567
3 114 PABLO ORTEGA FIAT ARGO 8 1:42.785 0.714
4 12 MAXIMILIANO BESTANI FIESTA KINETIC 8 1:42.878 0.807
5 121 NAZARENO BEGUIRISTAIN TOYOTA ETIOS 9 1:42.922 0.851
6 150 JUAN MARTIN ELUCHANS NISSAN MARCH 8 1:42.964 0.893
7 9 CHRISTIAN ABDALA TOYOTA ETIOS 10 1:43.011 0.940
8 14 IGNACIO PROCACITTO VW TREND 7 1:43.013 0.942
9 15 MIGUEL CIAURRO VW TREND 7 1:43.106 1.035
10 61 FACUNDO BUSTOS VW TREND 7 1:43.257 1.186
11 116 ALEJANDRO TORRISI NISSAN MARCH 9 1:43.305 1.234
12 35 SERGIO FERNANDEZ NISSAN MARCH 9 1:43.363 1.292
13 84 LUCAS YEROBI FIESTA KINETIC 7 1:43.394 1.323
14 7 FACUNDO LEANEZ TOYOTA ETIOS 7 1:43.448 1.377
15 79 MARCO VERONESI TOYOTA ETIOS 8 1:43.478 1.407
16 98 ALEX CONCI FIESTA KINETIC 7 1:43.553 1.482
17 113 CHRISTIAN BODRATO MIONETT TOYOTA ETIOS 6 1:43.590 1.519
18 23 DAMIAN KIRSTEIN PEUGEOT 208 6 1:43.748 1.677
19 28 MATEO NUNEZ NISSAN MARCH 4 1:43.777 1.706
20 10 ALEJO BORGIANI VW TREND 7 1:43.808 1.737
21 30 VALDERREY ALEJANDRO TOYOTA ETIOS 10 1:43.810 1.739
22 2 EMANUEL ABDALA FIESTA KINETIC 6 1:43.872 1.801
23 22 MARCOS FERNANDEZ NISSAN MARCH 10 1:43.885 1.814
24 21 FERNANDO GOMEZ FREDES TOYOTA ETIOS 7 1:43.926 1.855
25 124 MATIAS CRAVERO FIESTA KINETIC 9 1:43.999 1.928
26 8 SEBASTIAN PEREZ CHEVROLET ONIX 6 1:44.008 1.937
27 82 JUAN PABLO AQUILES TOYOTA ETIOS 7 1:44.029 1.958
28 75 JOSE LUIS ARRATE TOYOTA ETIOS 9 1:44.192 2.121
29 78 ROBERTO LUNA VW TREND 5 1:44.204 2.133
30 144 THOMAS POZNER RENAULT CLIO 8 1:44.245 2.174
31 3 GERONIMO NU TOYOTA ETIOS 7 1:44.258 2.187
32 55 MARCELO GUEVARA NISSAN MARCH 9 1:44.375 2.304
33 154 FACUNDO ROTONDO FIESTA KINETIC 6 1:44.395 2.324
34 37 GABRIEL SCORDIA FIAT ARGO 10 1:44.594 2.523
35 16 DIEGO LEANEZ TOYOTA ETIOS 8 1:44.971 2.900
36 141 MAURO SCHENONE FIAT ARGO 8 1:45.172 3.101
37 26 AGUSTIN BONOMO DS3 6 1:45.717 3.646
38 80 JUAN I. CANELA VW TREND 3 1:50.270 8.199
Descargas
Título Archivo Descarga
226-432-2do-entrenamiento-clase-2.xls
GENERAL ENTRENAMIENTO C2
Puesto Nro Piloto Marca Vtas Tiempo Dif.
1 4 LUCAS TEDESCHI TOYOTA ETIOS 1:42.071
2 14 IGNACIO PROCACITTO VW TREND 1:42.276 0.205
3 89 RENZO BLOTTA TOYOTA ETIOS 1:42.638 0.567
4 114 PABLO ORTEGA FIAT ARGO 1:42.725 0.654
5 12 MAXIMILIANO BESTANI FIESTA KINETIC 1:42.878 0.807
6 121 NAZARENO BEGUIRISTAIN TOYOTA ETIOS 1:42.922 0.851
7 150 JUAN MARTIN ELUCHANS NISSAN MARCH 1:42.964 0.893
8 9 CHRISTIAN ABDALA TOYOTA ETIOS 1:43.011 0.940
9 3 GERONIMO NUNEZ TOYOTA ETIOS 1:43.024 0.953
10 15 MIGUEL CIAURRO VW TREND 1:43.106 1.035
11 61 FACUNDO BUSTOS VW TREND 1:43.257 1.186
12 116 ALEJANDRO TORRISI NISSAN MARCH 1:43.305 1.234
13 113 CHRISTIAN BODRATO MIONETT TOYOTA ETIOS 1:43.336 1.265
14 35 SERGIO FERNANDEZ NISSAN MARCH 1:43.363 1.292
15 7 FACUNDO LEANEZ TOYOTA ETIOS 1:43.379 1.308
16 84 LUCAS YEROBI FIESTA KINETIC 1:43.394 1.323
17 2 EMANUEL ABDALA FIESTA KINETIC 1:43.409 1.338
18 79 MARCO VERONESI TOYOTA ETIOS 1:43.478 1.407
19 98 ALEX CONCI FIESTA KINETIC 1:43.528 1.457
20 8 SEBASTIAN PEREZ CHEVROLET ONIX 1:43.688 1.617
21 80 JUAN I. CANELA VW TREND 1:43.727 1.656
22 23 DAMIAN KIRSTEIN PEUGEOT 208 1:43.748 1.677
23 28 MATEO NUNEZ NISSAN MARCH 1:43.777 1.706
24 10 ALEJO BORGIANI VW TREND 1:43.808 1.737
25 30 VALDERREY ALEJANDRO TOYOTA ETIOS 1:43.810 1.739
26 22 MARCOS FERNANDEZ NISSAN MARCH 1:43.885 1.814
27 21 FERNANDO GOMEZ FREDES TOYOTA ETIOS 1:43.893 1.822
28 144 THOMAS POZNER RENAULT CLIO 1:43.964 1.893
29 82 JUAN PABLO AQUILES TOYOTA ETIOS 1:43.973 1.902
30 124 MATIAS CRAVERO FIESTA KINETIC 1:43.999 1.928
31 75 JOSE LUIS ARRATE TOYOTA ETIOS 1:44.192 2.121
32 78 ROBERTO LUNA VW TREND 1:44.204 2.133
33 55 MARCELO GUEVARA NISSAN MARCH 1:44.375 2.304
34 154 FACUNDO ROTONDO FIESTA KINETIC 1:44.395 2.324
35 37 GABRIEL SCORDIA FIAT ARGO 1:44.594 2.523
36 16 DIEGO LEANEZ TOYOTA ETIOS 1:44.707 2.636
37 141 MAURO SCHENONE FIAT ARGO 1:45.172 3.101
38 26 AGUSTIN BONOMO DS3 1:45.717 3.646
Descargas